Time;durP1;ratioP1;P1;durP2;ratioP2;P2;SDS_P1;SDS_P2;PMS_P1;PMS_P2;Temp;Humidity;BMP_temperature;BMP_pressure;BME280_temperature;BME280_humidity;BME280_pressure;Samples;Min_cycle;Max_cycle;Signal;HPM_P1;HPM_P2
2023/03/15 00:01:58;;;;;;;4.67;2.47;;;15.60;47.80;;;;;;5021797;28;20479;-84
2023/03/15 00:04:26;;;;;;;5.10;2.00;;;15.70;47.70;;;;;;5019343;28;20452;-83
2023/03/15 00:06:56;;;;;;;2.67;2.40;;;15.60;47.90;;;;;;5025888;28;20464;-83
2023/03/15 00:09:24;;;;;;;3.27;2.40;;;15.70;47.90;;;;;;5013877;28;20523;-84
2023/03/15 00:11:53;;;;;;;7.80;2.53;;;15.60;47.80;;;;;;5015526;28;20482;-83
2023/03/15 00:14:21;;;;;;;6.53;2.37;;;15.60;48.00;;;;;;5012332;28;20455;-85
2023/03/15 00:16:50;;;;;;;2.90;2.00;;;15.60;47.80;;;;;;5020813;28;20499;-84
2023/03/15 00:19:18;;;;;;;4.50;2.00;;;15.60;47.90;;;;;;5016930;28;20464;-83
2023/03/15 00:21:46;;;;;;;3.10;2.40;;;15.60;47.90;;;;;;5024878;28;20945;-86
2023/03/15 00:24:16;;;;;;;4.80;2.10;;;15.60;47.90;;;;;;5020561;28;20453;-84
2023/03/15 00:26:43;;;;;;;4.20;2.10;;;15.60;47.80;;;;;;5017025;28;20475;-82
2023/03/15 00:29:11;;;;;;;2.30;2.10;;;15.50;47.80;;;;;;5014708;28;20448;-82
2023/03/15 00:31:39;;;;;;;3.70;2.20;;;15.50;47.90;;;;;;5013034;28;20460;-83
2023/03/15 00:34:07;;;;;;;5.70;2.40;;;15.50;48.10;;;;;;5013204;28;20476;-83
2023/03/15 00:36:36;;;;;;;2.53;2.30;;;15.50;47.90;;;;;;5019771;28;20473;-84
2023/03/15 00:39:04;;;;;;;4.03;2.30;;;15.50;47.90;;;;;;5024877;28;20460;-83
2023/03/15 00:41:34;;;;;;;6.67;2.17;;;15.50;48.00;;;;;;5014305;28;20549;-84
2023/03/15 00:44:03;;;;;;;4.37;2.20;;;15.50;48.00;;;;;;5010812;28;20452;-83
2023/03/15 00:46:31;;;;;;;6.30;2.23;;;15.50;48.10;;;;;;5018524;28;20486;-83
2023/03/15 00:48:59;;;;;;;2.60;1.83;;;15.40;48.00;;;;;;5023426;28;20533;-84
2023/03/15 00:51:27;;;;;;;4.47;2.30;;;15.40;48.10;;;;;;5023852;28;20444;-83
2023/03/15 00:53:55;;;;;;;4.00;1.97;;;15.50;48.20;;;;;;5022958;28;20472;-83
2023/03/15 00:56:25;;;;;;;4.00;2.30;;;15.40;48.20;;;;;;5021580;28;20486;-84
2023/03/15 00:58:54;;;;;;;3.07;1.97;;;15.40;48.20;;;;;;5025476;28;20463;-83
2023/03/15 01:01:24;;;;;;;2.60;1.60;;;15.40;48.10;;;;;;5020698;28;20463;-83
2023/03/15 01:03:52;;;;;;;2.63;2.40;;;15.40;48.20;;;;;;5017377;28;20897;-84
2023/03/15 01:06:22;;;;;;;5.93;2.63;;;15.40;48.20;;;;;;5021830;28;20468;-84
2023/03/15 01:08:51;;;;;;;2.83;1.80;;;15.40;48.20;;;;;;5021303;28;20463;-84
2023/03/15 01:11:21;;;;;;;2.90;2.10;;;15.40;48.30;;;;;;5018098;28;20460;-85
2023/03/15 01:13:49;;;;;;;5.33;2.37;;;15.50;48.40;;;;;;5024236;28;20472;-83
2023/03/15 01:16:18;;;;;;;3.80;2.00;;;15.50;48.40;;;;;;5023775;28;20472;-83
2023/03/15 01:18:46;;;;;;;4.30;2.00;;;15.50;48.50;;;;;;5020162;28;20492;-84
2023/03/15 01:21:15;;;;;;;4.00;2.27;;;15.40;48.40;;;;;;5024813;28;20813;-83
2023/03/15 01:23:43;;;;;;;2.20;1.83;;;15.50;48.60;;;;;;5015723;28;20466;-82
2023/03/15 01:26:12;;;;;;;2.83;2.00;;;15.50;48.60;;;;;;5011124;28;20479;-84
2023/03/15 01:28:40;;;;;;;3.77;2.03;;;15.50;48.60;;;;;;5019440;28;20471;-83
2023/03/15 01:31:09;;;;;;;2.40;2.20;;;15.50;48.60;;;;;;5022024;28;20460;-84
2023/03/15 01:33:39;;;;;;;2.60;1.90;;;15.50;48.60;;;;;;5023596;28;20547;-84
2023/03/15 01:36:07;;;;;;;3.10;2.10;;;15.50;48.60;;;;;;5018056;28;20478;-84
2023/03/15 01:38:35;;;;;;;5.97;2.47;;;15.50;48.70;;;;;;5024343;28;20455;-84
2023/03/15 01:41:04;;;;;;;1.70;1.57;;;15.50;48.80;;;;;;5019134;28;20483;-84
2023/03/15 01:43:32;;;;;;;2.83;1.97;;;15.50;48.80;;;;;;5017319;28;20533;-83
2023/03/15 01:46:14;;;;;;;2.10;1.90;;;15.50;48.80;;;;;;5020140;28;20479;-85
2023/03/15 01:48:45;;;;;;;3.13;1.83;;;15.40;48.70;;;;;;5031543;28;20460;-85
2023/03/15 01:51:15;;;;;;;5.80;2.00;;;15.40;48.90;;;;;;5018232;28;20543;-85
2023/03/15 01:53:45;;;;;;;5.90;2.20;;;15.40;48.80;;;;;;5021510;28;20482;-85
2023/03/15 01:56:13;;;;;;;4.00;2.03;;;15.50;48.90;;;;;;5028138;28;20496;-83
2023/03/15 01:58:40;;;;;;;3.10;1.70;;;15.40;48.90;;;;;;5021047;28;20448;-85
2023/03/15 02:01:08;;;;;;;3.00;2.07;;;15.40;48.90;;;;;;5020525;28;20451;-84
2023/03/15 02:03:38;;;;;;;3.20;2.10;;;15.40;48.80;;;;;;5021933;28;20482;-84
2023/03/15 02:06:08;;;;;;;2.93;2.30;;;15.40;48.90;;;;;;5017709;28;20500;-86
2023/03/15 02:08:38;;;;;;;5.90;2.40;;;15.50;49.00;;;;;;5021693;28;20455;-84
2023/03/15 02:11:06;;;;;;;3.30;1.97;;;15.40;48.90;;;;;;5021164;28;20447;-84
2023/03/15 02:13:34;;;;;;;2.67;1.60;;;15.40;49.00;;;;;;5023610;28;20495;-84
2023/03/15 02:16:05;;;;;;;2.93;2.03;;;15.40;49.00;;;;;;5028240;28;20472;-84
2023/03/15 02:18:35;;;;;;;2.83;2.10;;;15.40;49.10;;;;;;5017425;28;20460;-85
2023/03/15 02:21:11;;;;;;;4.47;1.90;;;15.40;49.20;;;;;;5013621;28;20459;-83
2023/03/15 02:23:40;;;;;;;5.47;2.00;;;15.40;49.10;;;;;;5012335;28;20458;-84
2023/03/15 02:26:15;;;;;;;4.23;2.13;;;15.40;49.20;;;;;;5008549;28;20480;-83
2023/03/15 02:28:44;;;;;;;3.73;1.80;;;15.40;49.20;;;;;;5023888;28;20455;-83
2023/03/15 02:31:12;;;;;;;4.93;2.07;;;15.40;49.30;;;;;;5015316;28;20459;-84
2023/03/15 02:33:43;;;;;;;3.30;2.20;;;15.40;49.20;;;;;;5012154;28;20527;-84
2023/03/15 02:36:18;;;;;;;3.50;1.50;;;15.40;49.30;;;;;;5019651;28;20472;-84
2023/03/15 02:38:46;;;;;;;2.50;1.80;;;15.40;49.20;;;;;;5019842;28;20447;-84
2023/03/15 02:41:16;;;;;;;2.00;1.70;;;15.40;49.30;;;;;;5012922;28;20476;-84
2023/03/15 02:43:46;;;;;;;4.87;2.00;;;15.40;49.30;;;;;;5010909;28;20461;-86
2023/03/15 02:46:14;;;;;;;3.60;1.83;;;15.40;49.40;;;;;;5018481;28;20472;-84
2023/03/15 02:48:42;;;;;;;4.77;2.00;;;15.30;49.30;;;;;;5023926;28;20480;-84
2023/03/15 02:51:17;;;;;;;4.40;2.10;;;15.30;49.50;;;;;;5012653;28;20456;-84
2023/03/15 02:53:45;;;;;;;2.10;1.50;;;15.30;49.30;;;;;;5018039;28;20471;-83
2023/03/15 02:56:14;;;;;;;4.13;1.87;;;15.30;50.00;;;;;;5024287;28;20478;-84
2023/03/15 02:58:44;;;;;;;3.77;2.30;;;15.30;49.40;;;;;;5024926;28;20509;-83
2023/03/15 03:01:14;;;;;;;2.90;1.93;;;15.30;49.40;;;;;;5014719;28;20453;-84
2023/03/15 03:03:42;;;;;;;3.60;2.10;;;15.30;49.50;;;;;;5017552;28;20483;-84
2023/03/15 03:06:10;;;;;;;2.17;1.83;;;15.30;49.40;;;;;;5017742;28;21010;-84
2023/03/15 03:08:38;;;;;;;4.97;2.40;;;15.30;49.40;;;;;;5015678;28;20467;-84
2023/03/15 03:11:06;;;;;;;2.07;1.97;;;15.30;49.50;;;;;;5029287;28;20452;-85
2023/03/15 03:13:34;;;;;;;4.00;1.77;;;15.30;49.40;;;;;;5021547;28;20459;-84
2023/03/15 03:16:02;;;;;;;2.57;1.93;;;15.30;49.60;;;;;;5016596;28;20527;-86
2023/03/15 03:18:34;;;;;;;2.40;2.20;;;15.30;49.50;;;;;;5017453;28;20532;-84
2023/03/15 03:21:03;;;;;;;3.60;2.00;;;15.30;49.60;;;;;;5017481;28;20453;-86
2023/03/15 03:23:32;;;;;;;3.07;1.83;;;15.30;49.60;;;;;;5013785;28;20540;-86
2023/03/15 03:26:00;;;;;;;2.30;1.80;;;15.30;49.60;;;;;;5018944;28;20504;-81
2023/03/15 03:28:29;;;;;;;3.50;1.70;;;15.30;49.70;;;;;;5018366;28;20456;-83
2023/03/15 03:30:58;;;;;;;3.50;1.80;;;15.30;49.80;;;;;;5024386;28;20504;-83
2023/03/15 03:33:26;;;;;;;3.13;1.90;;;15.30;49.70;;;;;;5017412;28;20452;-84
2023/03/15 03:36:02;;;;;;;3.07;1.90;;;15.30;49.70;;;;;;5023544;28;20472;-84
2023/03/15 03:38:30;;;;;;;2.43;2.00;;;15.30;49.60;;;;;;5020382;28;20459;-83
2023/03/15 03:40:59;;;;;;;4.10;1.90;;;15.20;49.60;;;;;;5020526;28;20520;-84
2023/03/15 03:43:27;;;;;;;4.13;1.90;;;15.30;49.70;;;;;;5016124;28;20452;-83
2023/03/15 03:45:55;;;;;;;2.40;1.70;;;15.20;49.70;;;;;;5020240;28;21010;-84
2023/03/15 03:48:22;;;;;;;2.20;1.60;;;15.20;49.70;;;;;;5026627;28;20988;-84
2023/03/15 03:50:50;;;;;;;3.93;1.93;;;15.20;50.30;;;;;;5023224;28;20481;-84
2023/03/15 03:53:20;;;;;;;2.60;2.20;;;15.10;49.70;;;;;;5022971;28;20450;-84
2023/03/15 03:55:48;;;;;;;5.43;2.13;;;15.10;49.70;;;;;;5018238;28;20545;-83
2023/03/15 03:58:16;;;;;;;2.57;2.10;;;15.10;49.70;;;;;;5032052;28;20451;-84
2023/03/15 04:00:44;;;;;;;3.10;1.83;;;15.10;49.80;;;;;;5014135;28;20456;-84
2023/03/15 04:03:12;;;;;;;1.90;1.70;;;15.10;49.70;;;;;;5025901;28;20458;-84
2023/03/15 04:05:40;;;;;;;3.50;1.87;;;15.10;49.70;;;;;;5012818;28;20483;-84
2023/03/15 04:08:09;;;;;;;1.97;1.77;;;15.00;49.60;;;;;;5013302;28;20456;-83
2023/03/15 04:10:38;;;;;;;6.07;2.10;;;15.00;49.70;;;;;;5017492;28;20457;-84
2023/03/15 04:13:06;;;;;;;1.87;1.77;;;15.00;49.70;;;;;;5019813;28;20457;-84
2023/03/15 04:15:35;;;;;;;1.77;1.50;;;15.00;49.70;;;;;;5015983;28;20472;-83
2023/03/15 04:18:04;;;;;;;5.70;2.13;;;14.90;49.50;;;;;;5012569;28;20468;-83
2023/03/15 04:20:33;;;;;;;3.00;2.07;;;15.00;49.70;;;;;;5010383;28;20449;-83
2023/03/15 04:23:01;;;;;;;3.87;2.10;;;14.90;49.60;;;;;;5014652;28;20476;-83
2023/03/15 04:25:29;;;;;;;2.87;1.90;;;14.90;49.60;;;;;;5023486;28;20476;-84
2023/03/15 04:28:01;;;;;;;2.17;1.83;;;14.90;49.70;;;;;;5029237;28;20531;-84
2023/03/15 04:30:30;;;;;;;3.00;1.70;;;14.90;49.70;;;;;;5026460;28;20464;-84
2023/03/15 04:32:58;;;;;;;2.83;1.90;;;14.90;49.50;;;;;;5020138;28;20448;-83
2023/03/15 04:35:26;;;;;;;3.33;2.00;;;14.80;49.50;;;;;;5019868;28;21027;-84
2023/03/15 04:37:55;;;;;;;3.50;1.83;;;14.80;49.50;;;;;;5017048;28;20495;-83
2023/03/15 04:40:23;;;;;;;1.97;1.70;;;14.80;49.50;;;;;;5020792;28;20479;-83
2023/03/15 04:42:54;;;;;;;4.47;1.90;;;14.80;49.50;;;;;;5012891;28;20973;-82
2023/03/15 04:45:23;;;;;;;3.23;1.90;;;14.80;49.40;;;;;;5018430;28;20468;-83
2023/03/15 04:47:52;;;;;;;2.73;1.73;;;14.80;49.40;;;;;;5021036;28;20591;-82
2023/03/15 04:50:20;;;;;;;2.20;1.93;;;14.70;49.40;;;;;;5013527;28;20456;-83
2023/03/15 04:52:48;;;;;;;4.50;2.07;;;14.70;49.30;;;;;;5028996;28;20458;-83
2023/03/15 04:55:16;;;;;;;2.10;2.00;;;14.70;49.40;;;;;;5020851;28;20480;-84
2023/03/15 04:57:45;;;;;;;2.90;1.70;;;14.70;49.40;;;;;;5014710;28;20456;-83
2023/03/15 05:00:13;;;;;;;2.50;2.07;;;14.70;49.40;;;;;;5014860;28;21056;-83
2023/03/15 05:02:43;;;;;;;2.53;1.80;;;14.60;49.40;;;;;;5014948;28;21027;-83
2023/03/15 05:05:11;;;;;;;2.10;1.53;;;14.60;49.40;;;;;;5021138;28;20474;-84
2023/03/15 05:07:39;;;;;;;3.07;2.13;;;14.60;49.40;;;;;;5021803;28;20463;-83
2023/03/15 05:10:07;;;;;;;4.10;2.20;;;14.60;49.40;;;;;;5016949;28;20462;-84
2023/03/15 05:12:36;;;;;;;4.20;1.70;;;14.50;49.40;;;;;;5024586;28;20450;-84
2023/03/15 05:15:04;;;;;;;2.67;1.90;;;14.50;49.30;;;;;;5020678;28;20472;-84
2023/03/15 05:17:32;;;;;;;2.50;1.67;;;14.50;49.20;;;;;;5021629;28;20491;-84
2023/03/15 05:20:06;;;;;;;2.90;2.10;;;14.50;49.10;;;;;;5015239;28;20456;-83
2023/03/15 05:22:34;;;;;;;3.60;1.90;;;14.50;49.20;;;;;;5015622;28;20515;-85
2023/03/15 05:25:02;;;;;;;1.97;1.40;;;14.50;49.30;;;;;;5012531;28;20456;-84
2023/03/15 05:27:31;;;;;;;2.80;1.87;;;14.40;49.10;;;;;;5021078;28;20455;-84
2023/03/15 05:30:01;;;;;;;2.43;1.50;;;14.40;49.30;;;;;;5021768;28;20978;-84
2023/03/15 05:32:33;;;;;;;2.17;1.60;;;14.40;49.20;;;;;;5022402;28;20512;-83
2023/03/15 05:35:03;;;;;;;3.03;1.80;;;14.40;49.20;;;;;;5020416;28;20503;-84
2023/03/15 05:37:31;;;;;;;3.80;1.50;;;14.40;49.20;;;;;;5024704;28;20456;-84
2023/03/15 05:40:00;;;;;;;7.13;1.63;;;14.40;49.20;;;;;;5026883;28;20456;-84
2023/03/15 05:42:28;;;;;;;2.70;1.70;;;14.40;49.20;;;;;;5020673;28;20448;-83
2023/03/15 05:44:56;;;;;;;2.93;1.90;;;14.40;49.20;;;;;;5026125;28;20563;-82
2023/03/15 05:47:24;;;;;;;4.13;2.20;;;14.40;49.20;;;;;;5016071;28;20461;-83
2023/03/15 05:49:52;;;;;;;2.90;1.60;;;14.40;49.20;;;;;;5014317;28;20463;-83
2023/03/15 05:52:22;;;;;;;4.10;1.90;;;14.30;49.10;;;;;;5014246;28;20501;-83
2023/03/15 05:54:50;;;;;;;5.83;2.10;;;14.30;49.10;;;;;;5018139;28;20468;-84
2023/03/15 05:57:18;;;;;;;2.07;1.70;;;14.30;49.10;;;;;;5016268;28;20476;-86
2023/03/15 05:59:46;;;;;;;3.83;1.70;;;14.30;49.10;;;;;;5016500;28;20484;-85
2023/03/15 06:02:14;;;;;;;3.67;1.93;;;14.30;49.00;;;;;;5023734;28;20448;-83
2023/03/15 06:04:42;;;;;;;2.30;2.10;;;14.30;49.00;;;;;;5019121;28;20474;-84
2023/03/15 06:07:11;;;;;;;2.97;1.63;;;14.30;49.10;;;;;;5017175;28;20468;-86
2023/03/15 06:09:55;;;;;;;2.27;1.90;;;14.30;49.10;;;;;;5015935;28;20454;-84
2023/03/15 06:12:23;;;;;;;3.77;1.83;;;14.30;49.10;;;;;;5018910;28;20454;-83
2023/03/15 06:14:51;;;;;;;3.10;1.63;;;14.30;49.20;;;;;;5019140;28;20448;-85
2023/03/15 06:17:19;;;;;;;2.07;1.80;;;14.30;49.00;;;;;;5018566;28;20487;-85
2023/03/15 06:19:47;;;;;;;3.30;1.60;;;14.30;49.20;;;;;;5019290;28;20458;-85
2023/03/15 06:22:15;;;;;;;3.13;1.63;;;14.30;49.20;;;;;;5016556;28;20536;-84
2023/03/15 06:24:42;;;;;;;2.60;1.40;;;14.30;49.10;;;;;;5014560;28;20448;-84
2023/03/15 06:27:12;;;;;;;1.83;1.50;;;14.40;49.20;;;;;;5022949;28;20468;-85
2023/03/15 06:29:40;;;;;;;2.00;1.90;;;14.40;49.20;;;;;;5021601;28;20449;-84
2023/03/15 06:32:09;;;;;;;3.20;1.80;;;14.40;49.10;;;;;;5026894;28;20460;-84
2023/03/15 06:34:37;;;;;;;4.20;2.27;;;14.40;49.20;;;;;;5024375;28;20448;-84
2023/03/15 06:37:05;;;;;;;1.93;1.60;;;14.40;49.20;;;;;;5023535;28;20480;-85
2023/03/15 06:39:34;;;;;;;2.80;1.90;;;14.40;49.20;;;;;;5020219;28;20464;-82
2023/03/15 06:42:05;;;;;;;1.83;1.70;;;14.40;49.20;;;;;;5024255;28;20460;-81
2023/03/15 06:44:34;;;;;;;2.77;1.97;;;14.40;49.20;;;;;;5021850;28;20456;-83
2023/03/15 06:47:03;;;;;;;3.03;2.07;;;14.40;49.20;;;;;;5020614;28;20476;-83
2023/03/15 06:49:31;;;;;;;2.50;2.13;;;14.40;49.30;;;;;;5023685;28;20456;-86
2023/03/15 06:51:59;;;;;;;3.93;1.70;;;14.40;49.30;;;;;;5016152;28;20471;-84
2023/03/15 06:54:27;;;;;;;3.60;1.67;;;14.40;49.40;;;;;;5016149;28;20461;-85
2023/03/15 06:56:55;;;;;;;2.10;1.83;;;14.50;49.40;;;;;;5016882;28;20484;-84
2023/03/15 06:59:24;;;;;;;3.50;2.30;;;14.50;49.50;;;;;;5022231;28;20456;-84
2023/03/15 07:01:53;;;;;;;4.27;1.83;;;14.50;49.40;;;;;;5021917;28;20464;-83
2023/03/15 07:04:21;;;;;;;2.40;1.57;;;14.50;49.50;;;;;;5017563;28;20448;-85
2023/03/15 07:06:50;;;;;;;5.90;2.07;;;14.60;49.50;;;;;;5021814;28;20474;-84
2023/03/15 07:09:18;;;;;;;2.70;2.10;;;14.60;49.50;;;;;;5023710;28;20539;-84
2023/03/15 07:11:46;;;;;;;2.03;1.73;;;14.60;49.60;;;;;;5023528;28;20531;-84
2023/03/15 07:14:14;;;;;;;3.73;2.03;;;14.60;49.60;;;;;;5020622;28;20452;-85
2023/03/15 07:16:42;;;;;;;3.70;2.30;;;14.70;49.70;;;;;;5018486;28;20854;-83
2023/03/15 07:19:11;;;;;;;3.90;2.90;;;14.70;49.60;;;;;;5017096;28;20563;-83
2023/03/15 07:21:40;;;;;;;5.33;3.47;;;14.80;49.70;;;;;;5014510;28;20453;-83
2023/03/15 07:24:08;;;;;;;5.73;4.00;;;14.80;49.70;;;;;;5016264;28;20524;-83
2023/03/15 07:26:36;;;;;;;5.30;4.43;;;14.80;49.80;;;;;;5011823;28;20470;-84
2023/03/15 07:29:04;;;;;;;7.07;4.27;;;14.80;49.80;;;;;;5016683;28;20456;-84
2023/03/15 07:31:32;;;;;;;8.07;5.37;;;14.80;49.80;;;;;;5024491;28;20456;-81
2023/03/15 07:34:00;;;;;;;11.90;5.10;;;14.90;49.80;;;;;;5025401;28;20444;-88
2023/03/15 07:36:31;;;;;;;8.20;5.60;;;14.90;49.80;;;;;;5025106;28;20479;-84
2023/03/15 07:39:00;;;;;;;8.37;5.80;;;14.90;49.90;;;;;;5022555;28;20813;-82
2023/03/15 07:41:28;;;;;;;9.30;6.03;;;14.90;50.00;;;;;;5011617;28;20456;-83
2023/03/15 07:43:56;;;;;;;9.27;6.20;;;14.90;50.00;;;;;;5017554;28;20451;-83
2023/03/15 07:46:25;;;;;;;9.67;6.30;;;15.00;50.10;;;;;;5013571;28;20463;-83
2023/03/15 07:48:53;;;;;;;9.93;6.40;;;15.00;50.10;;;;;;5012933;28;20455;-83
2023/03/15 07:51:21;;;;;;;10.97;6.80;;;15.00;50.00;;;;;;5026428;28;20462;-83
2023/03/15 07:53:51;;;;;;;9.77;6.50;;;15.10;50.20;;;;;;5026142;28;20451;-83
2023/03/15 07:56:20;;;;;;;9.07;6.47;;;15.10;50.10;;;;;;5020263;28;20484;-84
2023/03/15 07:58:48;;;;;;;11.47;6.60;;;15.20;50.20;;;;;;5012692;28;20459;-83
2023/03/15 08:01:15;;;;;;;12.10;7.57;;;15.20;50.20;;;;;;5008519;28;20452;-81
2023/03/15 08:03:44;;;;;;;10.07;6.30;;;15.30;50.30;;;;;;5015079;28;20466;-83
2023/03/15 08:06:19;;;;;;;9.87;6.60;;;15.30;50.40;;;;;;5023686;28;20562;-83
2023/03/15 08:09:04;;;;;;;10.93;6.70;;;15.30;50.20;;;;;;5018197;28;20452;-82
2023/03/15 08:11:35;;;;;;;9.50;7.00;;;15.40;50.50;;;;;;5016224;28;20492;-83
2023/03/15 08:14:04;;;;;;;11.13;6.80;;;15.50;50.50;;;;;;5010983;28;20514;-82
2023/03/15 08:16:32;;;;;;;9.80;6.37;;;15.60;50.70;;;;;;5012610;28;20499;-85
2023/03/15 08:19:00;;;;;;;11.10;5.87;;;15.70;50.70;;;;;;5010931;28;20483;-83
2023/03/15 08:21:28;;;;;;;9.77;6.30;;;15.80;50.90;;;;;;5010742;28;20452;-83
2023/03/15 08:23:58;;;;;;;9.73;6.47;;;16.00;51.20;;;;;;5011684;28;20448;-83
2023/03/15 08:26:26;;;;;;;10.00;6.20;;;16.10;51.90;;;;;;5006125;28;20483;-83
2023/03/15 08:28:54;;;;;;;9.40;6.33;;;16.40;51.70;;;;;;5005755;28;20462;-81
2023/03/15 08:31:22;;;;;;;8.33;5.87;;;16.50;51.70;;;;;;5013572;28;20471;-82
2023/03/15 08:33:50;;;;;;;8.10;6.20;;;16.80;51.90;;;;;;5007139;28;20460;-82
2023/03/15 08:36:19;;;;;;;8.10;5.37;;;17.00;51.90;;;;;;5008261;28;20509;-83
2023/03/15 08:38:47;;;;;;;8.23;5.80;;;17.20;52.00;;;;;;5014901;28;20480;-84
2023/03/15 08:41:17;;;;;;;11.33;6.23;;;17.50;51.90;;;;;;5019277;28;20460;-84
2023/03/15 08:43:45;;;;;;;7.17;5.67;;;17.70;51.90;;;;;;5018471;28;20460;-84
2023/03/15 08:46:13;;;;;;;7.70;5.90;;;17.90;51.80;;;;;;5018451;28;20468;-86
2023/03/15 08:48:42;;;;;;;9.23;6.40;;;18.10;51.60;;;;;;5019365;28;20515;-86
2023/03/15 08:51:12;;;;;;;6.00;1.80;;;18.30;51.60;;;;;;5018835;28;20441;-82
2023/03/15 08:53:40;;;;;;;10.33;2.47;;;16.40;39.80;;;;;;5019897;28;20444;-80
2023/03/15 08:56:09;;;;;;;10.63;1.93;;;14.30;41.50;;;;;;5014416;28;20491;-80
2023/03/15 09:01:57;;;;;;;5.90;1.70;;;12.60;43.00;;;;;;4991070;28;20452;-79
2023/03/15 09:04:25;;;;;;;6.73;1.63;;;13.40;44.60;;;;;;5013857;28;20468;-80
2023/03/15 09:06:54;;;;;;;4.97;1.80;;;13.50;43.40;;;;;;5007458;28;20460;-81
2023/03/15 09:09:22;;;;;;;6.90;1.53;;;13.50;43.20;;;;;;5016696;28;20551;-79
2023/03/15 09:11:50;;;;;;;6.27;2.03;;;13.20;44.40;;;;;;5003947;28;20449;-79
2023/03/15 09:14:19;;;;;;;2.80;1.37;;;14.80;45.80;;;;;;5008337;28;20490;-77
2023/03/15 09:16:47;;;;;;;5.73;1.60;;;16.30;43.30;;;;;;4995886;28;20475;-79
2023/03/15 09:19:15;;;;;;;4.03;1.67;;;17.60;41.30;;;;;;5009214;28;20460;-80
2023/03/15 09:21:45;;;;;;;6.20;1.73;;;18.60;39.90;;;;;;5004944;28;20451;-80
2023/03/15 09:24:14;;;;;;;6.53;1.50;;;19.40;39.00;;;;;;5012975;28;20451;-80
2023/03/15 09:26:42;;;;;;;2.97;1.43;;;20.00;38.50;;;;;;5008945;28;20551;-80
2023/03/15 09:29:10;;;;;;;4.30;1.33;;;20.60;38.30;;;;;;5005738;28;20448;-78
2023/03/15 09:31:39;;;;;;;5.67;1.80;;;21.10;37.90;;;;;;5008739;28;20476;-79
2023/03/15 09:34:07;;;;;;;5.27;1.50;;;21.50;37.90;;;;;;5002820;28;20941;-79
2023/03/15 09:36:35;;;;;;;4.00;1.57;;;22.00;37.90;;;;;;5000971;28;20469;-79
2023/03/15 09:39:03;;;;;;;5.63;1.93;;;22.20;37.50;;;;;;5001460;28;20441;-79
2023/03/15 09:41:40;;;;;;;6.57;1.57;;;22.30;37.20;;;;;;5011211;28;20462;-79
2023/03/15 09:44:17;;;;;;;4.37;1.40;;;22.50;37.10;;;;;;5000196;28;20428;-79
2023/03/15 09:46:52;;;;;;;2.60;1.47;;;22.50;37.00;;;;;;5001544;28;20567;-79
2023/03/15 09:52:54;;;;;;;2.80;1.27;;;22.30;36.80;;;;;;4996182;28;20466;-85
2023/03/15 09:55:26;;;;;;;3.10;1.60;;;21.90;37.10;;;;;;5010164;28;20440;-82
2023/03/15 09:57:58;;;;;;;6.03;1.67;;;21.60;37.70;;;;;;5006363;28;20446;-84
2023/03/15 10:00:30;;;;;;;25.10;12.40;;;21.20;38.00;;;;;;5006987;28;20493;-86
2023/03/15 10:03:02;;;;;;;13.20;6.93;;;20.40;36.70;;;;;;5005145;28;20457;-88
2023/03/15 10:05:35;;;;;;;9.63;6.17;;;20.30;38.00;;;;;;5000873;28;20535;-86
2023/03/15 10:08:03;;;;;;;13.43;6.63;;;20.20;38.50;;;;;;5011557;28;20528;-89
2023/03/15 10:10:33;;;;;;;14.10;6.93;;;20.00;38.80;;;;;;4999765;28;20477;-88
2023/03/15 10:13:08;;;;;;;10.70;6.13;;;19.90;39.10;;;;;;5013832;28;20828;-89
2023/03/15 10:15:51;;;;;;;10.13;5.83;;;19.80;39.30;;;;;;5002246;28;20475;-84
2023/03/15 10:18:32;;;;;;;9.33;5.60;;;19.70;39.60;;;;;;5004777;28;20512;-87
2023/03/15 10:21:04;;;;;;;11.73;6.03;;;19.60;39.80;;;;;;5009937;28;20548;-87
2023/03/15 10:23:40;;;;;;;10.10;5.27;;;19.50;39.90;;;;;;5008625;28;20547;-86
2023/03/15 10:26:12;;;;;;;10.60;5.40;;;19.50;40.20;;;;;;5010468;28;20460;-90
2023/03/15 10:28:41;;;;;;;7.90;4.57;;;19.40;40.40;;;;;;5003177;28;20469;-88
2023/03/15 10:31:12;;;;;;;7.40;4.90;;;19.40;40.70;;;;;;5012291;28;20476;-87
2023/03/15 10:33:58;;;;;;;8.43;5.20;;;19.40;40.80;;;;;;5008705;28;20445;-86
2023/03/15 10:36:26;;;;;;;9.60;4.80;;;19.50;40.80;;;;;;5007149;28;20480;-86
2023/03/15 10:38:54;;;;;;;6.97;4.80;;;19.60;41.10;;;;;;5004844;28;20516;-87
2023/03/15 10:41:30;;;;;;;9.90;5.10;;;19.70;41.10;;;;;;5004868;28;20450;-87
2023/03/15 10:44:00;;;;;;;6.13;4.10;;;19.80;41.20;;;;;;5004933;28;20439;-85
2023/03/15 10:46:28;;;;;;;8.70;4.13;;;20.20;41.60;;;;;;5009680;28;20707;-85
2023/03/15 10:48:59;;;;;;;7.17;3.77;;;20.40;41.20;;;;;;5009372;28;20470;-86
2023/03/15 10:51:40;;;;;;;6.10;4.03;;;20.60;41.20;;;;;;5008982;28;20461;-85
2023/03/15 10:54:13;;;;;;;6.00;4.10;;;20.70;40.80;;;;;;5004079;28;20457;-86
2023/03/15 10:56:44;;;;;;;6.10;3.80;;;20.60;40.70;;;;;;5010880;28;20475;-85
2023/03/15 10:59:17;;;;;;;7.17;3.80;;;20.50;40.90;;;;;;5003586;28;20479;-86
2023/03/15 11:01:48;;;;;;;6.37;4.20;;;20.40;41.00;;;;;;5012649;28;20535;-88
2023/03/15 11:04:19;;;;;;;9.23;4.27;;;20.20;41.10;;;;;;5007054;28;20512;-86
2023/03/15 11:06:48;;;;;;;6.00;3.97;;;20.00;41.50;;;;;;5006263;28;20469;-84
2023/03/15 11:09:17;;;;;;;8.30;4.33;;;19.90;41.70;;;;;;5001814;28;20474;-89
2023/03/15 11:11:53;;;;;;;5.37;4.00;;;19.80;41.70;;;;;;5000462;28;20537;-88
2023/03/15 11:14:21;;;;;;;8.50;4.73;;;19.80;41.90;;;;;;5004115;28;20445;-86
2023/03/15 11:16:50;;;;;;;9.50;4.73;;;19.80;42.00;;;;;;5006676;28;20469;-86
2023/03/15 11:19:20;;;;;;;6.10;4.30;;;19.70;42.20;;;;;;4997878;28;20455;-87
2023/03/15 11:21:49;;;;;;;5.50;4.20;;;19.80;42.40;;;;;;5009777;28;20979;-87
2023/03/15 11:24:29;;;;;;;8.43;4.87;;;19.80;42.30;;;;;;5004109;28;20451;-89
2023/03/15 11:27:00;;;;;;;7.23;4.53;;;19.70;42.40;;;;;;5005704;28;20472;-89
2023/03/15 11:29:30;;;;;;;9.13;5.23;;;19.70;42.60;;;;;;5007171;28;20491;-89
2023/03/15 11:31:59;;;;;;;5.83;4.37;;;19.70;42.40;;;;;;5004115;28;20487;-90
2023/03/15 11:34:36;;;;;;;9.87;5.17;;;19.70;42.60;;;;;;5010611;28;20444;-89
2023/03/15 11:37:06;;;;;;;6.87;4.53;;;19.70;42.70;;;;;;5008225;28;20471;-88
2023/03/15 11:39:44;;;;;;;12.93;6.37;;;19.70;42.80;;;;;;5008967;28;20447;-87
2023/03/15 11:42:16;;;;;;;6.30;4.77;;;19.70;42.70;;;;;;5007513;28;20448;-86
2023/03/15 11:44:45;;;;;;;7.60;5.20;;;19.80;42.80;;;;;;5010815;28;20543;-87
2023/03/15 11:47:16;;;;;;;9.17;5.93;;;19.70;42.60;;;;;;5006700;28;20515;-88
2023/03/15 11:49:49;;;;;;;9.50;6.30;;;19.70;42.80;;;;;;5006719;28;20543;-89
2023/03/15 11:52:17;;;;;;;11.10;6.80;;;19.50;42.80;;;;;;5010085;28;20507;-89
2023/03/15 11:54:45;;;;;;;9.70;7.23;;;19.40;42.90;;;;;;5010257;28;20508;-88
2023/03/15 11:57:44;;;;;;;13.23;7.67;;;19.30;43.00;;;;;;5007914;28;20471;-89
2023/03/15 12:00:48;;;;;;;11.13;7.50;;;19.20;43.20;;;;;;4929754;29;20552;-86
2023/03/15 12:03:35;;;;;;;14.93;8.30;;;19.20;43.50;;;;;;5001974;28;20556;-87
2023/03/15 12:06:13;;;;;;;10.30;7.33;;;19.20;43.50;;;;;;5001771;28;20473;-87
2023/03/15 12:08:43;;;;;;;12.07;7.80;;;19.50;44.00;;;;;;5009032;28;20468;-87
2023/03/15 12:11:12;;;;;;;12.43;8.00;;;19.70;43.00;;;;;;5018869;28;20472;-86
2023/03/15 12:13:51;;;;;;;11.27;8.50;;;19.60;42.80;;;;;;5002863;28;20480;-87
2023/03/15 12:16:21;;;;;;;13.60;7.87;;;19.50;42.90;;;;;;5006850;28;20462;-84
2023/03/15 12:18:49;;;;;;;12.23;8.97;;;19.30;43.10;;;;;;4999445;28;20460;-85
2023/03/15 12:21:21;;;;;;;15.70;8.83;;;19.30;43.50;;;;;;5007491;28;20490;-88
2023/03/15 12:23:57;;;;;;;13.97;9.80;;;21.30;46.20;;;;;;5005068;28;20452;-88
2023/03/15 12:26:30;;;;;;;11.77;9.10;;;24.30;42.80;;;;;;5008440;28;20487;-88
2023/03/15 12:29:05;;;;;;;3.20;2.90;;;26.80;38.70;;;;;;5003301;28;20860;-79
2023/03/15 12:31:44;;;;;;;4.77;2.30;;;29.00;35.90;;;;;;5003103;28;20451;-78
2023/03/15 12:34:14;;;;;;;3.87;2.20;;;28.60;32.30;;;;;;5005067;28;20453;-78
2023/03/15 12:36:46;;;;;;;2.33;2.23;;;29.70;34.10;;;;;;5006515;28;20440;-77
2023/03/15 12:39:21;;;;;;;2.37;2.23;;;31.30;32.00;;;;;;5000832;28;20457;-79
2023/03/15 12:41:49;;;;;;;4.60;1.97;;;32.60;29.80;;;;;;5001462;28;20491;-79
2023/03/15 12:44:20;;;;;;;2.23;1.80;;;33.80;28.90;;;;;;5001240;28;20437;-80
2023/03/15 12:46:58;;;;;;;2.57;1.93;;;34.70;27.90;;;;;;5006413;28;20468;-80
2023/03/15 12:49:32;;;;;;;1.80;1.70;;;35.60;26.80;;;;;;5003885;28;20474;-79
2023/03/15 12:52:03;;;;;;;2.53;1.60;;;36.20;26.20;;;;;;5005150;28;20445;-80
2023/03/15 12:54:33;;;;;;;3.43;1.37;;;36.70;25.60;;;;;;5005107;28;20948;-80
2023/03/15 12:57:01;;;;;;;2.03;1.83;;;37.10;25.10;;;;;;5006989;28;20500;-80
2023/03/15 12:59:32;;;;;;;1.57;1.57;;;37.50;25.00;;;;;;5007541;28;20436;-79
2023/03/15 13:02:01;;;;;;;1.40;1.30;;;37.80;24.40;;;;;;5006278;28;20453;-78
2023/03/15 13:04:29;;;;;;;1.47;1.40;;;38.10;24.10;;;;;;5003728;28;20434;-80
2023/03/15 13:07:23;;;;;;;1.47;1.00;;;38.30;24.00;;;;;;5022213;28;20471;-81